sensor_id;sensor_type;location;lat;lon;timestamp;P1;durP1;ratioP1;P2;durP2;ratioP2
8268;SDS011;4174;48.304;16.364;2023-04-24T00:03:46;9.40;;;4.00;;
8268;SDS011;4174;48.304;16.364;2023-04-24T00:09:49;9.17;;;3.90;;
8268;SDS011;4174;48.304;16.364;2023-04-24T00:15:55;8.70;;;3.50;;
8268;SDS011;4174;48.304;16.364;2023-04-24T00:21:57;8.83;;;3.53;;
8268;SDS011;4174;48.304;16.364;2023-04-24T00:28:01;8.13;;;3.50;;
8268;SDS011;4174;48.304;16.364;2023-04-24T00:34:05;8.33;;;3.70;;
8268;SDS011;4174;48.304;16.364;2023-04-24T00:40:08;8.17;;;3.60;;
8268;SDS011;4174;48.304;16.364;2023-04-24T00:46:13;8.80;;;3.60;;
8268;SDS011;4174;48.304;16.364;2023-04-24T00:52:16;11.07;;;4.37;;
8268;SDS011;4174;48.304;16.364;2023-04-24T00:58:20;8.87;;;4.27;;
8268;SDS011;4174;48.304;16.364;2023-04-24T01:04:23;10.60;;;4.80;;
8268;SDS011;4174;48.304;16.364;2023-04-24T01:10:25;9.37;;;4.90;;
8268;SDS011;4174;48.304;16.364;2023-04-24T01:16:29;10.60;;;5.00;;
8268;SDS011;4174;48.304;16.364;2023-04-24T01:22:33;11.57;;;4.87;;
8268;SDS011;4174;48.304;16.364;2023-04-24T01:28:35;13.30;;;4.77;;
8268;SDS011;4174;48.304;16.364;2023-04-24T01:34:37;10.40;;;5.17;;
8268;SDS011;4174;48.304;16.364;2023-04-24T01:40:42;10.03;;;4.53;;
8268;SDS011;4174;48.304;16.364;2023-04-24T01:46:45;9.07;;;4.50;;
8268;SDS011;4174;48.304;16.364;2023-04-24T01:52:48;9.20;;;4.60;;
8268;SDS011;4174;48.304;16.364;2023-04-24T01:58:53;9.93;;;4.78;;
8268;SDS011;4174;48.304;16.364;2023-04-24T02:04:56;9.40;;;4.80;;
8268;SDS011;4174;48.304;16.364;2023-04-24T02:10:59;12.30;;;6.07;;
8268;SDS011;4174;48.304;16.364;2023-04-24T02:17:03;9.15;;;5.15;;
8268;SDS011;4174;48.304;16.364;2023-04-24T02:23:07;9.95;;;5.20;;
8268;SDS011;4174;48.304;16.364;2023-04-24T02:29:12;10.00;;;4.83;;
8268;SDS011;4174;48.304;16.364;2023-04-24T02:35:16;10.45;;;5.07;;
8268;SDS011;4174;48.304;16.364;2023-04-24T02:41:19;9.17;;;5.00;;
8268;SDS011;4174;48.304;16.364;2023-04-24T02:47:23;10.40;;;5.10;;
8268;SDS011;4174;48.304;16.364;2023-04-24T02:53:27;8.65;;;4.53;;
8268;SDS011;4174;48.304;16.364;2023-04-24T02:59:31;8.27;;;4.10;;
8268;SDS011;4174;48.304;16.364;2023-04-24T03:05:34;8.40;;;4.18;;
8268;SDS011;4174;48.304;16.364;2023-04-24T03:11:38;11.33;;;4.30;;
8268;SDS011;4174;48.304;16.364;2023-04-24T03:17:43;9.15;;;4.20;;
8268;SDS011;4174;48.304;16.364;2023-04-24T03:23:47;8.70;;;3.80;;
8268;SDS011;4174;48.304;16.364;2023-04-24T03:29:51;8.13;;;4.00;;
8268;SDS011;4174;48.304;16.364;2023-04-24T03:35:55;8.33;;;3.87;;
8268;SDS011;4174;48.304;16.364;2023-04-24T03:41:59;9.02;;;4.12;;
8268;SDS011;4174;48.304;16.364;2023-04-24T03:48:03;8.80;;;4.20;;
8268;SDS011;4174;48.304;16.364;2023-04-24T03:54:07;8.80;;;4.00;;
8268;SDS011;4174;48.304;16.364;2023-04-24T04:00:11;7.87;;;3.60;;
8268;SDS011;4174;48.304;16.364;2023-04-24T04:06:16;7.93;;;3.73;;
8268;SDS011;4174;48.304;16.364;2023-04-24T04:12:20;8.35;;;3.50;;
8268;SDS011;4174;48.304;16.364;2023-04-24T04:18:25;8.63;;;3.40;;
8268;SDS011;4174;48.304;16.364;2023-04-24T04:24:28;7.80;;;3.43;;
8268;SDS011;4174;48.304;16.364;2023-04-24T04:30:32;7.60;;;3.20;;
8268;SDS011;4174;48.304;16.364;2023-04-24T04:36:36;7.23;;;3.00;;
8268;SDS011;4174;48.304;16.364;2023-04-24T04:42:40;6.70;;;3.08;;
8268;SDS011;4174;48.304;16.364;2023-04-24T04:48:43;8.33;;;2.90;;
8268;SDS011;4174;48.304;16.364;2023-04-24T04:54:47;6.43;;;2.87;;
8268;SDS011;4174;48.304;16.364;2023-04-24T05:00:51;5.63;;;2.37;;
8268;SDS011;4174;48.304;16.364;2023-04-24T05:06:54;6.22;;;2.37;;
8268;SDS011;4174;48.304;16.364;2023-04-24T05:12:58;6.10;;;2.43;;
8268;SDS011;4174;48.304;16.364;2023-04-24T05:19:02;5.50;;;2.30;;
8268;SDS011;4174;48.304;16.364;2023-04-24T05:25:06;5.33;;;2.20;;
8268;SDS011;4174;48.304;16.364;2023-04-24T05:31:10;5.72;;;2.20;;
8268;SDS011;4174;48.304;16.364;2023-04-24T05:37:14;5.37;;;2.10;;
8268;SDS011;4174;48.304;16.364;2023-04-24T05:43:19;7.13;;;2.80;;
8268;SDS011;4174;48.304;16.364;2023-04-24T05:49:22;5.85;;;2.05;;
8268;SDS011;4174;48.304;16.364;2023-04-24T05:55:27;5.60;;;1.90;;
8268;SDS011;4174;48.304;16.364;2023-04-24T06:01:30;5.75;;;2.10;;
8268;SDS011;4174;48.304;16.364;2023-04-24T06:07:34;5.90;;;1.90;;
8268;SDS011;4174;48.304;16.364;2023-04-24T06:13:37;5.43;;;2.00;;
8268;SDS011;4174;48.304;16.364;2023-04-24T06:19:41;5.13;;;2.00;;
8268;SDS011;4174;48.304;16.364;2023-04-24T06:25:45;5.40;;;2.12;;
8268;SDS011;4174;48.304;16.364;2023-04-24T06:31:50;5.35;;;2.00;;
8268;SDS011;4174;48.304;16.364;2023-04-24T06:37:53;5.15;;;2.12;;
8268;SDS011;4174;48.304;16.364;2023-04-24T06:43:57;6.30;;;2.30;;
8268;SDS011;4174;48.304;16.364;2023-04-24T06:50:00;6.12;;;2.37;;
8268;SDS011;4174;48.304;16.364;2023-04-24T06:56:05;6.20;;;2.42;;
8268;SDS011;4174;48.304;16.364;2023-04-24T07:02:09;6.40;;;2.63;;
8268;SDS011;4174;48.304;16.364;2023-04-24T07:08:12;6.00;;;2.40;;
8268;SDS011;4174;48.304;16.364;2023-04-24T07:14:16;8.23;;;2.40;;
8268;SDS011;4174;48.304;16.364;2023-04-24T07:20:19;5.87;;;2.12;;
8268;SDS011;4174;48.304;16.364;2023-04-24T07:26:22;5.70;;;2.40;;
8268;SDS011;4174;48.304;16.364;2023-04-24T07:32:26;6.25;;;2.58;;
8268;SDS011;4174;48.304;16.364;2023-04-24T07:38:30;6.20;;;2.60;;
8268;SDS011;4174;48.304;16.364;2023-04-24T07:44:33;6.13;;;2.50;;
8268;SDS011;4174;48.304;16.364;2023-04-24T07:50:36;6.20;;;2.60;;
8268;SDS011;4174;48.304;16.364;2023-04-24T07:56:40;5.27;;;2.30;;
8268;SDS011;4174;48.304;16.364;2023-04-24T08:02:42;5.28;;;2.00;;
8268;SDS011;4174;48.304;16.364;2023-04-24T08:08:46;5.00;;;1.90;;
8268;SDS011;4174;48.304;16.364;2023-04-24T08:14:50;4.80;;;1.80;;
8268;SDS011;4174;48.304;16.364;2023-04-24T08:20:53;5.27;;;1.87;;
8268;SDS011;4174;48.304;16.364;2023-04-24T08:26:57;6.12;;;1.90;;
8268;SDS011;4174;48.304;16.364;2023-04-24T08:33:01;4.70;;;1.80;;
8268;SDS011;4174;48.304;16.364;2023-04-24T08:39:04;5.62;;;1.60;;
8268;SDS011;4174;48.304;16.364;2023-04-24T08:45:08;4.20;;;1.40;;
8268;SDS011;4174;48.304;16.364;2023-04-24T08:51:12;4.22;;;1.20;;
8268;SDS011;4174;48.304;16.364;2023-04-24T08:57:17;3.62;;;1.10;;
8268;SDS011;4174;48.304;16.364;2023-04-24T09:03:19;3.85;;;1.10;;
8268;SDS011;4174;48.304;16.364;2023-04-24T09:09:23;3.72;;;0.90;;
8268;SDS011;4174;48.304;16.364;2023-04-24T09:15:25;3.55;;;1.00;;
8268;SDS011;4174;48.304;16.364;2023-04-24T09:21:32;4.00;;;1.00;;
8268;SDS011;4174;48.304;16.364;2023-04-24T09:27:35;4.05;;;1.00;;
8268;SDS011;4174;48.304;16.364;2023-04-24T09:33:38;3.70;;;0.80;;
8268;SDS011;4174;48.304;16.364;2023-04-24T09:39:42;3.80;;;0.90;;
8268;SDS011;4174;48.304;16.364;2023-04-24T09:45:45;3.43;;;0.70;;
8268;SDS011;4174;48.304;16.364;2023-04-24T09:51:49;3.90;;;0.87;;
8268;SDS011;4174;48.304;16.364;2023-04-24T09:57:54;3.70;;;1.00;;
8268;SDS011;4174;48.304;16.364;2023-04-24T10:04:00;3.53;;;1.00;;
8268;SDS011;4174;48.304;16.364;2023-04-24T10:10:04;3.50;;;0.90;;
8268;SDS011;4174;48.304;16.364;2023-04-24T10:16:09;3.45;;;0.90;;
8268;SDS011;4174;48.304;16.364;2023-04-24T10:22:11;3.67;;;0.90;;
8268;SDS011;4174;48.304;16.364;2023-04-24T10:28:15;4.40;;;1.00;;
8268;SDS011;4174;48.304;16.364;2023-04-24T10:34:18;3.78;;;0.90;;
8268;SDS011;4174;48.304;16.364;2023-04-24T10:40:26;4.00;;;1.10;;
8268;SDS011;4174;48.304;16.364;2023-04-24T10:46:27;4.80;;;1.30;;
8268;SDS011;4174;48.304;16.364;2023-04-24T10:58:53;4.40;;;1.40;;
8268;SDS011;4174;48.304;16.364;2023-04-24T11:04:56;4.63;;;1.30;;
8268;SDS011;4174;48.304;16.364;2023-04-24T11:11:02;3.83;;;1.20;;
8268;SDS011;4174;48.304;16.364;2023-04-24T11:17:05;4.53;;;1.10;;
8268;SDS011;4174;48.304;16.364;2023-04-24T11:23:09;4.00;;;1.20;;
8268;SDS011;4174;48.304;16.364;2023-04-24T11:29:12;4.28;;;1.50;;
8268;SDS011;4174;48.304;16.364;2023-04-24T11:35:16;4.47;;;1.40;;
8268;SDS011;4174;48.304;16.364;2023-04-24T11:41:20;4.37;;;1.42;;
8268;SDS011;4174;48.304;16.364;2023-04-24T11:47:28;4.62;;;1.48;;
8268;SDS011;4174;48.304;16.364;2023-04-24T11:53:30;4.68;;;1.42;;
8268;SDS011;4174;48.304;16.364;2023-04-24T11:59:35;4.60;;;1.60;;
8268;SDS011;4174;48.304;16.364;2023-04-24T12:05:38;5.40;;;1.80;;
8268;SDS011;4174;48.304;16.364;2023-04-24T12:11:52;5.07;;;1.50;;
8268;SDS011;4174;48.304;16.364;2023-04-24T12:17:44;5.03;;;1.83;;
8268;SDS011;4174;48.304;16.364;2023-04-24T12:23:48;4.43;;;1.60;;
8268;SDS011;4174;48.304;16.364;2023-04-24T12:29:51;5.55;;;1.58;;
8268;SDS011;4174;48.304;16.364;2023-04-24T12:35:58;4.27;;;1.40;;
8268;SDS011;4174;48.304;16.364;2023-04-24T12:42:01;4.37;;;1.20;;
8268;SDS011;4174;48.304;16.364;2023-04-24T12:48:05;4.50;;;1.20;;
8268;SDS011;4174;48.304;16.364;2023-04-24T12:54:09;4.00;;;1.10;;
8268;SDS011;4174;48.304;16.364;2023-04-24T13:00:12;4.10;;;1.20;;
8268;SDS011;4174;48.304;16.364;2023-04-24T13:06:18;4.20;;;1.20;;
8268;SDS011;4174;48.304;16.364;2023-04-24T13:12:22;6.00;;;1.27;;
8268;SDS011;4174;48.304;16.364;2023-04-24T13:18:26;4.70;;;1.40;;
8268;SDS011;4174;48.304;16.364;2023-04-24T13:24:29;5.63;;;1.60;;
8268;SDS011;4174;48.304;16.364;2023-04-24T13:30:33;5.33;;;1.40;;
8268;SDS011;4174;48.304;16.364;2023-04-24T13:36:36;4.93;;;1.23;;
8268;SDS011;4174;48.304;16.364;2023-04-24T13:42:40;4.20;;;1.30;;
8268;SDS011;4174;48.304;16.364;2023-04-24T13:48:44;4.97;;;1.20;;
8268;SDS011;4174;48.304;16.364;2023-04-24T13:54:48;4.23;;;1.10;;
8268;SDS011;4174;48.304;16.364;2023-04-24T14:00:52;5.82;;;1.80;;
8268;SDS011;4174;48.304;16.364;2023-04-24T14:06:56;4.63;;;1.33;;
8268;SDS011;4174;48.304;16.364;2023-04-24T14:13:00;7.62;;;2.35;;
8268;SDS011;4174;48.304;16.364;2023-04-24T14:19:03;6.43;;;2.10;;
8268;SDS011;4174;48.304;16.364;2023-04-24T14:25:06;8.63;;;2.08;;
8268;SDS011;4174;48.304;16.364;2023-04-24T14:31:11;6.97;;;2.50;;
8268;SDS011;4174;48.304;16.364;2023-04-24T14:37:14;6.53;;;2.30;;
8268;SDS011;4174;48.304;16.364;2023-04-24T14:43:18;5.73;;;2.20;;
8268;SDS011;4174;48.304;16.364;2023-04-24T14:49:23;6.80;;;2.20;;
8268;SDS011;4174;48.304;16.364;2023-04-24T14:55:25;6.47;;;2.60;;
8268;SDS011;4174;48.304;16.364;2023-04-24T15:01:29;7.07;;;2.50;;
8268;SDS011;4174;48.304;16.364;2023-04-24T15:07:32;4.80;;;1.90;;
8268;SDS011;4174;48.304;16.364;2023-04-24T15:13:36;4.53;;;1.70;;
8268;SDS011;4174;48.304;16.364;2023-04-24T15:19:39;5.37;;;1.87;;
8268;SDS011;4174;48.304;16.364;2023-04-24T15:25:43;5.87;;;2.60;;
8268;SDS011;4174;48.304;16.364;2023-04-24T15:31:47;5.70;;;2.30;;
8268;SDS011;4174;48.304;16.364;2023-04-24T15:37:50;5.53;;;2.10;;
8268;SDS011;4174;48.304;16.364;2023-04-24T15:43:54;4.80;;;1.20;;
8268;SDS011;4174;48.304;16.364;2023-04-24T15:49:58;4.10;;;1.20;;
8268;SDS011;4174;48.304;16.364;2023-04-24T15:56:03;3.83;;;1.10;;
8268;SDS011;4174;48.304;16.364;2023-04-24T16:02:08;4.90;;;1.45;;
8268;SDS011;4174;48.304;16.364;2023-04-24T16:08:11;4.20;;;1.10;;
8268;SDS011;4174;48.304;16.364;2023-04-24T16:14:16;5.60;;;1.92;;
8268;SDS011;4174;48.304;16.364;2023-04-24T16:20:19;4.50;;;1.40;;
8268;SDS011;4174;48.304;16.364;2023-04-24T16:26:23;8.15;;;1.87;;
8268;SDS011;4174;48.304;16.364;2023-04-24T16:32:27;5.50;;;1.30;;
8268;SDS011;4174;48.304;16.364;2023-04-24T16:38:31;5.12;;;1.40;;
8268;SDS011;4174;48.304;16.364;2023-04-24T16:44:35;4.50;;;1.20;;
8268;SDS011;4174;48.304;16.364;2023-04-24T16:50:39;5.13;;;1.20;;
8268;SDS011;4174;48.304;16.364;2023-04-24T16:56:43;5.05;;;1.33;;
8268;SDS011;4174;48.304;16.364;2023-04-24T17:02:47;6.10;;;1.50;;
8268;SDS011;4174;48.304;16.364;2023-04-24T17:08:50;4.63;;;1.60;;
8268;SDS011;4174;48.304;16.364;2023-04-24T17:14:53;4.73;;;1.60;;
8268;SDS011;4174;48.304;16.364;2023-04-24T17:20:57;5.07;;;1.30;;
8268;SDS011;4174;48.304;16.364;2023-04-24T17:27:01;5.10;;;1.50;;
8268;SDS011;4174;48.304;16.364;2023-04-24T17:33:04;4.57;;;1.33;;
8268;SDS011;4174;48.304;16.364;2023-04-24T17:39:08;4.87;;;1.60;;
8268;SDS011;4174;48.304;16.364;2023-04-24T17:45:12;6.62;;;2.30;;
8268;SDS011;4174;48.304;16.364;2023-04-24T17:51:16;5.15;;;1.80;;
8268;SDS011;4174;48.304;16.364;2023-04-24T17:57:20;6.17;;;2.23;;
8268;SDS011;4174;48.304;16.364;2023-04-24T18:03:23;6.00;;;2.27;;
8268;SDS011;4174;48.304;16.364;2023-04-24T18:09:27;6.07;;;2.30;;
8268;SDS011;4174;48.304;16.364;2023-04-24T18:15:31;6.10;;;2.70;;
8268;SDS011;4174;48.304;16.364;2023-04-24T18:21:35;6.07;;;2.80;;
8268;SDS011;4174;48.304;16.364;2023-04-24T18:27:39;6.80;;;3.20;;
8268;SDS011;4174;48.304;16.364;2023-04-24T18:33:41;5.67;;;2.23;;
8268;SDS011;4174;48.304;16.364;2023-04-24T18:39:44;5.47;;;2.22;;
8268;SDS011;4174;48.304;16.364;2023-04-24T18:45:47;5.00;;;2.10;;
8268;SDS011;4174;48.304;16.364;2023-04-24T18:51:52;5.90;;;2.40;;
8268;SDS011;4174;48.304;16.364;2023-04-24T18:57:56;5.78;;;2.30;;
8268;SDS011;4174;48.304;16.364;2023-04-24T19:03:59;5.80;;;2.20;;
8268;SDS011;4174;48.304;16.364;2023-04-24T19:10:03;6.60;;;2.43;;
8268;SDS011;4174;48.304;16.364;2023-04-24T19:16:07;5.87;;;2.20;;
8268;SDS011;4174;48.304;16.364;2023-04-24T19:22:11;6.05;;;2.45;;
8268;SDS011;4174;48.304;16.364;2023-04-24T19:28:15;5.83;;;2.70;;
8268;SDS011;4174;48.304;16.364;2023-04-24T19:34:19;7.15;;;3.25;;
8268;SDS011;4174;48.304;16.364;2023-04-24T19:40:23;6.63;;;3.20;;
8268;SDS011;4174;48.304;16.364;2023-04-24T19:46:26;6.53;;;2.70;;
8268;SDS011;4174;48.304;16.364;2023-04-24T19:52:29;5.83;;;2.70;;
8268;SDS011;4174;48.304;16.364;2023-04-24T19:58:33;5.82;;;2.42;;
8268;SDS011;4174;48.304;16.364;2023-04-24T20:04:37;6.00;;;2.30;;
8268;SDS011;4174;48.304;16.364;2023-04-24T20:10:40;6.00;;;2.40;;
8268;SDS011;4174;48.304;16.364;2023-04-24T20:16:43;6.00;;;2.40;;
8268;SDS011;4174;48.304;16.364;2023-04-24T20:22:47;6.10;;;2.50;;
8268;SDS011;4174;48.304;16.364;2023-04-24T20:28:51;6.57;;;2.35;;
8268;SDS011;4174;48.304;16.364;2023-04-24T20:34:55;5.97;;;2.30;;
8268;SDS011;4174;48.304;16.364;2023-04-24T20:40:58;5.83;;;2.33;;
8268;SDS011;4174;48.304;16.364;2023-04-24T20:47:02;5.73;;;2.30;;
8268;SDS011;4174;48.304;16.364;2023-04-24T20:53:05;5.20;;;2.27;;
8268;SDS011;4174;48.304;16.364;2023-04-24T20:59:09;5.83;;;2.50;;
8268;SDS011;4174;48.304;16.364;2023-04-24T21:05:13;5.50;;;2.20;;
8268;SDS011;4174;48.304;16.364;2023-04-24T21:11:16;5.23;;;2.30;;
8268;SDS011;4174;48.304;16.364;2023-04-24T21:17:20;6.07;;;2.37;;
8268;SDS011;4174;48.304;16.364;2023-04-24T21:23:23;6.80;;;2.43;;
8268;SDS011;4174;48.304;16.364;2023-04-24T21:29:27;5.70;;;2.03;;
8268;SDS011;4174;48.304;16.364;2023-04-24T21:35:31;5.43;;;2.10;;
8268;SDS011;4174;48.304;16.364;2023-04-24T21:41:34;6.17;;;2.43;;
8268;SDS011;4174;48.304;16.364;2023-04-24T21:47:40;6.60;;;2.30;;
8268;SDS011;4174;48.304;16.364;2023-04-24T21:53:44;6.57;;;2.60;;
8268;SDS011;4174;48.304;16.364;2023-04-24T21:59:47;5.83;;;2.30;;
8268;SDS011;4174;48.304;16.364;2023-04-24T22:05:51;7.87;;;2.50;;
8268;SDS011;4174;48.304;16.364;2023-04-24T22:11:55;6.37;;;2.37;;
8268;SDS011;4174;48.304;16.364;2023-04-24T22:17:58;5.80;;;2.40;;
8268;SDS011;4174;48.304;16.364;2023-04-24T22:24:02;6.10;;;2.30;;
8268;SDS011;4174;48.304;16.364;2023-04-24T22:30:07;6.90;;;2.40;;
8268;SDS011;4174;48.304;16.364;2023-04-24T22:36:12;5.30;;;2.10;;
8268;SDS011;4174;48.304;16.364;2023-04-24T22:42:16;5.37;;;2.33;;
8268;SDS011;4174;48.304;16.364;2023-04-24T22:48:19;5.90;;;2.22;;
8268;SDS011;4174;48.304;16.364;2023-04-24T22:54:22;6.30;;;2.67;;
8268;SDS011;4174;48.304;16.364;2023-04-24T23:00:26;6.53;;;2.30;;
8268;SDS011;4174;48.304;16.364;2023-04-24T23:06:29;6.40;;;2.30;;
8268;SDS011;4174;48.304;16.364;2023-04-24T23:12:32;6.07;;;2.40;;
8268;SDS011;4174;48.304;16.364;2023-04-24T23:18:35;5.53;;;2.40;;
8268;SDS011;4174;48.304;16.364;2023-04-24T23:24:39;6.10;;;2.43;;
8268;SDS011;4174;48.304;16.364;2023-04-24T23:30:42;6.47;;;2.67;;
8268;SDS011;4174;48.304;16.364;2023-04-24T23:36:46;5.77;;;2.30;;
8268;SDS011;4174;48.304;16.364;2023-04-24T23:42:50;5.30;;;2.17;;
8268;SDS011;4174;48.304;16.364;2023-04-24T23:48:53;5.33;;;2.10;;
8268;SDS011;4174;48.304;16.364;2023-04-24T23:54:57;5.85;;;2.25;;
